<?xml version="1.0" encoding="UTF-8" standalone="no" ?>
<gpx xmlns="http://www.topografix.com/GPX/1/1" xmlns:xsi="http://www.w3.org/2001/XMLSchema-instance" xsi:schemaLocation="http://www.topografix.com/GPX/1/1 http://www.topografix.com/GPX/1/1/gpx.xsd" version="1.1" creator="VisuGPX - https://www.visugpx.com">
  <metadata>
    <name>Baume les Messieurs - Belvédère et Abbaye</name>
    <desc><![CDATA[Beau parcours, dénivelé important au départ pour accéder au  Belvédère. A partir de ce niveau, superbes vues la reculée de Beaume. Visite possible des Grottes ainsi que de l\'Abbaye.]]></desc>
  </metadata>
  <trk>
    <name><![CDATA[28 mai 2013 09:45:13]]></name>
    <cmt><![CDATA[28 mai 2013 09:45:13]]></cmt>
    <trkseg>
      <trkpt lat="46.69072" lon="5.63949">
        <ele>256</ele>
        <time>2013-05-28T07:45:14Z</time>
      </trkpt>
      <trkpt lat="46.69044" lon="5.63943">
        <ele>289</ele>
        <time>2013-05-28T07:46:02Z</time>
      </trkpt>
      <trkpt lat="46.69035" lon="5.63941">
        <ele>294</ele>
        <time>2013-05-28T07:46:47Z</time>
      </trkpt>
      <trkpt lat="46.68952" lon="5.63551">
        <ele>507.6</ele>
        <time>2013-05-28T07:54:01Z</time>
      </trkpt>
      <trkpt lat="46.68956" lon="5.63705">
        <ele>452.6</ele>
        <time>2013-05-28T07:54:27Z</time>
      </trkpt>
      <trkpt lat="46.68944" lon="5.63745">
        <ele>407.3</ele>
        <time>2013-05-28T07:57:01Z</time>
      </trkpt>
      <trkpt lat="46.68917" lon="5.63756">
        <ele>413.7</ele>
        <time>2013-05-28T07:57:38Z</time>
      </trkpt>
      <trkpt lat="46.6889" lon="5.63752">
        <ele>431.7</ele>
        <time>2013-05-28T07:58:32Z</time>
      </trkpt>
      <trkpt lat="46.68872" lon="5.63788">
        <ele>428.9</ele>
        <time>2013-05-28T07:59:50Z</time>
      </trkpt>
      <trkpt lat="46.68836" lon="5.63957">
        <ele>468.2</ele>
        <time>2013-05-28T08:02:16Z</time>
      </trkpt>
      <trkpt lat="46.68868" lon="5.64008">
        <ele>453.5</ele>
        <time>2013-05-28T08:04:36Z</time>
      </trkpt>
      <trkpt lat="46.68878" lon="5.64046">
        <ele>412</ele>
        <time>2013-05-28T08:09:34Z</time>
      </trkpt>
      <trkpt lat="46.68883" lon="5.64033">
        <ele>436</ele>
        <time>2013-05-28T08:10:02Z</time>
      </trkpt>
      <trkpt lat="46.68855" lon="5.6404">
        <ele>437</ele>
        <time>2013-05-28T08:11:24Z</time>
      </trkpt>
      <trkpt lat="46.68846" lon="5.64037">
        <ele>442</ele>
        <time>2013-05-28T08:11:51Z</time>
      </trkpt>
      <trkpt lat="46.68852" lon="5.64008">
        <ele>445</ele>
        <time>2013-05-28T08:12:30Z</time>
      </trkpt>
      <trkpt lat="46.68841" lon="5.64004">
        <ele>448</ele>
        <time>2013-05-28T08:14:42Z</time>
      </trkpt>
      <trkpt lat="46.68819" lon="5.63979">
        <ele>497.3</ele>
        <time>2013-05-28T08:16:29Z</time>
      </trkpt>
      <trkpt lat="46.68803" lon="5.63974">
        <ele>460</ele>
        <time>2013-05-28T08:16:46Z</time>
      </trkpt>
      <trkpt lat="46.688" lon="5.63995">
        <ele>462</ele>
        <time>2013-05-28T08:19:04Z</time>
      </trkpt>
      <trkpt lat="46.68803" lon="5.64008">
        <ele>461</ele>
        <time>2013-05-28T08:19:11Z</time>
      </trkpt>
      <trkpt lat="46.6881" lon="5.64028">
        <ele>458</ele>
        <time>2013-05-28T08:19:29Z</time>
      </trkpt>
      <trkpt lat="46.6881" lon="5.64059">
        <ele>460</ele>
        <time>2013-05-28T08:20:06Z</time>
      </trkpt>
      <trkpt lat="46.68813" lon="5.64082">
        <ele>463</ele>
        <time>2013-05-28T08:20:23Z</time>
      </trkpt>
      <trkpt lat="46.68821" lon="5.64114">
        <ele>467</ele>
        <time>2013-05-28T08:20:42Z</time>
      </trkpt>
      <trkpt lat="46.68823" lon="5.64147">
        <ele>470</ele>
        <time>2013-05-28T08:21:07Z</time>
      </trkpt>
      <trkpt lat="46.68826" lon="5.64182">
        <ele>471</ele>
        <time>2013-05-28T08:21:23Z</time>
      </trkpt>
      <trkpt lat="46.68825" lon="5.64217">
        <ele>472</ele>
        <time>2013-05-28T08:21:42Z</time>
      </trkpt>
      <trkpt lat="46.68824" lon="5.64245">
        <ele>471</ele>
        <time>2013-05-28T08:22:07Z</time>
      </trkpt>
      <trkpt lat="46.6884" lon="5.64245">
        <ele>470</ele>
        <time>2013-05-28T08:22:25Z</time>
      </trkpt>
      <trkpt lat="46.68856" lon="5.64245">
        <ele>468</ele>
        <time>2013-05-28T08:22:36Z</time>
      </trkpt>
      <trkpt lat="46.68871" lon="5.64254">
        <ele>464</ele>
        <time>2013-05-28T08:22:57Z</time>
      </trkpt>
      <trkpt lat="46.68879" lon="5.64273">
        <ele>462</ele>
        <time>2013-05-28T08:23:11Z</time>
      </trkpt>
      <trkpt lat="46.68883" lon="5.64293">
        <ele>461</ele>
        <time>2013-05-28T08:23:22Z</time>
      </trkpt>
      <trkpt lat="46.68884" lon="5.64325">
        <ele>461</ele>
        <time>2013-05-28T08:23:49Z</time>
      </trkpt>
      <trkpt lat="46.68883" lon="5.64348">
        <ele>463</ele>
        <time>2013-05-28T08:24:06Z</time>
      </trkpt>
      <trkpt lat="46.68888" lon="5.64369">
        <ele>464</ele>
        <time>2013-05-28T08:24:13Z</time>
      </trkpt>
      <trkpt lat="46.68898" lon="5.64389">
        <ele>465</ele>
        <time>2013-05-28T08:24:28Z</time>
      </trkpt>
      <trkpt lat="46.6891" lon="5.64403">
        <ele>467</ele>
        <time>2013-05-28T08:24:43Z</time>
      </trkpt>
      <trkpt lat="46.68921" lon="5.64414">
        <ele>471</ele>
        <time>2013-05-28T08:25:19Z</time>
      </trkpt>
      <trkpt lat="46.68939" lon="5.64416">
        <ele>474</ele>
        <time>2013-05-28T08:25:40Z</time>
      </trkpt>
      <trkpt lat="46.68956" lon="5.64422">
        <ele>476</ele>
        <time>2013-05-28T08:25:55Z</time>
      </trkpt>
      <trkpt lat="46.68974" lon="5.64432">
        <ele>477</ele>
        <time>2013-05-28T08:26:10Z</time>
      </trkpt>
      <trkpt lat="46.68987" lon="5.64445">
        <ele>478</ele>
        <time>2013-05-28T08:26:28Z</time>
      </trkpt>
      <trkpt lat="46.68995" lon="5.64457">
        <ele>480</ele>
        <time>2013-05-28T08:26:56Z</time>
      </trkpt>
      <trkpt lat="46.69" lon="5.64479">
        <ele>484</ele>
        <time>2013-05-28T08:27:25Z</time>
      </trkpt>
      <trkpt lat="46.69016" lon="5.64512">
        <ele>486</ele>
        <time>2013-05-28T08:27:56Z</time>
      </trkpt>
      <trkpt lat="46.69027" lon="5.64531">
        <ele>486</ele>
        <time>2013-05-28T08:28:08Z</time>
      </trkpt>
      <trkpt lat="46.69037" lon="5.64557">
        <ele>485</ele>
        <time>2013-05-28T08:28:32Z</time>
      </trkpt>
      <trkpt lat="46.69056" lon="5.64579">
        <ele>485</ele>
        <time>2013-05-28T08:28:52Z</time>
      </trkpt>
      <trkpt lat="46.69067" lon="5.64596">
        <ele>486</ele>
        <time>2013-05-28T08:29:16Z</time>
      </trkpt>
      <trkpt lat="46.69077" lon="5.64608">
        <ele>486</ele>
        <time>2013-05-28T08:29:47Z</time>
      </trkpt>
      <trkpt lat="46.69087" lon="5.6463">
        <ele>486</ele>
        <time>2013-05-28T08:30:04Z</time>
      </trkpt>
      <trkpt lat="46.6909" lon="5.64652">
        <ele>486</ele>
        <time>2013-05-28T08:30:32Z</time>
      </trkpt>
      <trkpt lat="46.69087" lon="5.64689">
        <ele>510.2</ele>
        <time>2013-05-28T08:31:21Z</time>
      </trkpt>
      <trkpt lat="46.6909" lon="5.6472">
        <ele>485</ele>
        <time>2013-05-28T08:31:35Z</time>
      </trkpt>
      <trkpt lat="46.691" lon="5.64737">
        <ele>483</ele>
        <time>2013-05-28T08:31:58Z</time>
      </trkpt>
      <trkpt lat="46.69114" lon="5.6475">
        <ele>482</ele>
        <time>2013-05-28T08:32:16Z</time>
      </trkpt>
      <trkpt lat="46.69146" lon="5.6478">
        <ele>481</ele>
        <time>2013-05-28T08:33:14Z</time>
      </trkpt>
      <trkpt lat="46.69169" lon="5.64804">
        <ele>485</ele>
        <time>2013-05-28T08:33:59Z</time>
      </trkpt>
      <trkpt lat="46.6919" lon="5.64816">
        <ele>487</ele>
        <time>2013-05-28T08:34:18Z</time>
      </trkpt>
      <trkpt lat="46.69204" lon="5.64831">
        <ele>487</ele>
        <time>2013-05-28T08:34:48Z</time>
      </trkpt>
      <trkpt lat="46.69216" lon="5.64855">
        <ele>489</ele>
        <time>2013-05-28T08:35:10Z</time>
      </trkpt>
      <trkpt lat="46.6923" lon="5.64869">
        <ele>488</ele>
        <time>2013-05-28T08:35:31Z</time>
      </trkpt>
      <trkpt lat="46.69247" lon="5.6488">
        <ele>487</ele>
        <time>2013-05-28T08:35:50Z</time>
      </trkpt>
      <trkpt lat="46.69264" lon="5.64889">
        <ele>485</ele>
        <time>2013-05-28T08:36:07Z</time>
      </trkpt>
      <trkpt lat="46.6928" lon="5.64896">
        <ele>483</ele>
        <time>2013-05-28T08:36:29Z</time>
      </trkpt>
      <trkpt lat="46.69297" lon="5.6492">
        <ele>482</ele>
        <time>2013-05-28T08:37:03Z</time>
      </trkpt>
      <trkpt lat="46.69315" lon="5.6494">
        <ele>482</ele>
        <time>2013-05-28T08:37:20Z</time>
      </trkpt>
      <trkpt lat="46.69334" lon="5.64951">
        <ele>482</ele>
        <time>2013-05-28T08:37:43Z</time>
      </trkpt>
      <trkpt lat="46.69355" lon="5.64958">
        <ele>481</ele>
        <time>2013-05-28T08:38:04Z</time>
      </trkpt>
      <trkpt lat="46.69365" lon="5.64969">
        <ele>479</ele>
        <time>2013-05-28T08:38:32Z</time>
      </trkpt>
      <trkpt lat="46.69373" lon="5.64969">
        <ele>477</ele>
        <time>2013-05-28T08:39:01Z</time>
      </trkpt>
      <trkpt lat="46.69374" lon="5.64966">
        <ele>504.1</ele>
        <time>2013-05-28T08:39:40Z</time>
      </trkpt>
      <trkpt lat="46.69388" lon="5.64984">
        <ele>475</ele>
        <time>2013-05-28T08:42:04Z</time>
      </trkpt>
      <trkpt lat="46.69399" lon="5.65001">
        <ele>473</ele>
        <time>2013-05-28T08:42:26Z</time>
      </trkpt>
      <trkpt lat="46.69414" lon="5.65013">
        <ele>472</ele>
        <time>2013-05-28T08:42:49Z</time>
      </trkpt>
      <trkpt lat="46.69464" lon="5.65092">
        <ele>473</ele>
        <time>2013-05-28T08:44:19Z</time>
      </trkpt>
      <trkpt lat="46.69469" lon="5.65122">
        <ele>474</ele>
        <time>2013-05-28T08:44:52Z</time>
      </trkpt>
      <trkpt lat="46.69481" lon="5.65147">
        <ele>475</ele>
        <time>2013-05-28T08:45:10Z</time>
      </trkpt>
      <trkpt lat="46.69496" lon="5.65163">
        <ele>475</ele>
        <time>2013-05-28T08:45:27Z</time>
      </trkpt>
      <trkpt lat="46.69511" lon="5.65175">
        <ele>475</ele>
        <time>2013-05-28T08:45:46Z</time>
      </trkpt>
      <trkpt lat="46.69518" lon="5.65192">
        <ele>475</ele>
        <time>2013-05-28T08:46:17Z</time>
      </trkpt>
      <trkpt lat="46.69534" lon="5.65221">
        <ele>475</ele>
        <time>2013-05-28T08:46:41Z</time>
      </trkpt>
      <trkpt lat="46.69542" lon="5.65255">
        <ele>475</ele>
        <time>2013-05-28T08:47:16Z</time>
      </trkpt>
      <trkpt lat="46.69547" lon="5.65277">
        <ele>474</ele>
        <time>2013-05-28T08:47:33Z</time>
      </trkpt>
      <trkpt lat="46.69556" lon="5.65291">
        <ele>474</ele>
        <time>2013-05-28T08:47:51Z</time>
      </trkpt>
      <trkpt lat="46.69564" lon="5.65308">
        <ele>473</ele>
        <time>2013-05-28T08:48:04Z</time>
      </trkpt>
      <trkpt lat="46.69568" lon="5.6533">
        <ele>470</ele>
        <time>2013-05-28T08:48:26Z</time>
      </trkpt>
      <trkpt lat="46.69561" lon="5.6535">
        <ele>467</ele>
        <time>2013-05-28T08:50:14Z</time>
      </trkpt>
      <trkpt lat="46.69555" lon="5.65389">
        <ele>468</ele>
        <time>2013-05-28T08:50:38Z</time>
      </trkpt>
      <trkpt lat="46.6955" lon="5.65412">
        <ele>469</ele>
        <time>2013-05-28T08:50:57Z</time>
      </trkpt>
      <trkpt lat="46.69548" lon="5.6544">
        <ele>469</ele>
        <time>2013-05-28T08:51:20Z</time>
      </trkpt>
      <trkpt lat="46.69551" lon="5.65476">
        <ele>469</ele>
        <time>2013-05-28T08:51:45Z</time>
      </trkpt>
      <trkpt lat="46.69557" lon="5.65487">
        <ele>468</ele>
        <time>2013-05-28T08:52:07Z</time>
      </trkpt>
      <trkpt lat="46.69559" lon="5.65511">
        <ele>468</ele>
        <time>2013-05-28T08:52:19Z</time>
      </trkpt>
      <trkpt lat="46.69563" lon="5.65534">
        <ele>469</ele>
        <time>2013-05-28T08:52:39Z</time>
      </trkpt>
      <trkpt lat="46.69558" lon="5.65556">
        <ele>469</ele>
        <time>2013-05-28T08:53:09Z</time>
      </trkpt>
      <trkpt lat="46.69548" lon="5.65579">
        <ele>470</ele>
        <time>2013-05-28T08:53:34Z</time>
      </trkpt>
      <trkpt lat="46.69537" lon="5.65608">
        <ele>473</ele>
        <time>2013-05-28T08:53:55Z</time>
      </trkpt>
      <trkpt lat="46.69531" lon="5.65629">
        <ele>475</ele>
        <time>2013-05-28T08:54:09Z</time>
      </trkpt>
      <trkpt lat="46.69536" lon="5.65658">
        <ele>477</ele>
        <time>2013-05-28T08:54:28Z</time>
      </trkpt>
      <trkpt lat="46.69539" lon="5.65683">
        <ele>478</ele>
        <time>2013-05-28T08:54:45Z</time>
      </trkpt>
      <trkpt lat="46.69538" lon="5.65718">
        <ele>479</ele>
        <time>2013-05-28T08:55:31Z</time>
      </trkpt>
      <trkpt lat="46.69538" lon="5.65743">
        <ele>480</ele>
        <time>2013-05-28T08:55:43Z</time>
      </trkpt>
      <trkpt lat="46.69537" lon="5.65766">
        <ele>481</ele>
        <time>2013-05-28T08:55:57Z</time>
      </trkpt>
      <trkpt lat="46.69537" lon="5.65806">
        <ele>483</ele>
        <time>2013-05-28T08:56:35Z</time>
      </trkpt>
      <trkpt lat="46.69541" lon="5.6584">
        <ele>484</ele>
        <time>2013-05-28T08:57:06Z</time>
      </trkpt>
      <trkpt lat="46.69539" lon="5.65854">
        <ele>483</ele>
        <time>2013-05-28T08:57:28Z</time>
      </trkpt>
      <trkpt lat="46.69536" lon="5.65878">
        <ele>484</ele>
        <time>2013-05-28T08:57:39Z</time>
      </trkpt>
      <trkpt lat="46.69541" lon="5.65912">
        <ele>485</ele>
        <time>2013-05-28T08:58:07Z</time>
      </trkpt>
      <trkpt lat="46.69549" lon="5.65938">
        <ele>487</ele>
        <time>2013-05-28T08:58:24Z</time>
      </trkpt>
      <trkpt lat="46.69562" lon="5.65983">
        <ele>503.7</ele>
        <time>2013-05-28T08:58:55Z</time>
      </trkpt>
      <trkpt lat="46.69596" lon="5.66008">
        <ele>482</ele>
        <time>2013-05-28T08:59:47Z</time>
      </trkpt>
      <trkpt lat="46.69615" lon="5.66016">
        <ele>481</ele>
        <time>2013-05-28T09:00:09Z</time>
      </trkpt>
      <trkpt lat="46.69622" lon="5.66014">
        <ele>484</ele>
        <time>2013-05-28T09:01:44Z</time>
      </trkpt>
      <trkpt lat="46.6964" lon="5.66029">
        <ele>482</ele>
        <time>2013-05-28T09:02:33Z</time>
      </trkpt>
      <trkpt lat="46.69655" lon="5.66034">
        <ele>480</ele>
        <time>2013-05-28T09:02:52Z</time>
      </trkpt>
      <trkpt lat="46.69673" lon="5.66055">
        <ele>480</ele>
        <time>2013-05-28T09:04:06Z</time>
      </trkpt>
      <trkpt lat="46.69686" lon="5.66084">
        <ele>481</ele>
        <time>2013-05-28T09:04:36Z</time>
      </trkpt>
      <trkpt lat="46.697" lon="5.66094">
        <ele>481</ele>
        <time>2013-05-28T09:04:56Z</time>
      </trkpt>
      <trkpt lat="46.69733" lon="5.66118">
        <ele>482</ele>
        <time>2013-05-28T09:05:43Z</time>
      </trkpt>
      <trkpt lat="46.69758" lon="5.66124">
        <ele>483</ele>
        <time>2013-05-28T09:06:08Z</time>
      </trkpt>
      <trkpt lat="46.69778" lon="5.66119">
        <ele>483</ele>
        <time>2013-05-28T09:06:26Z</time>
      </trkpt>
      <trkpt lat="46.69794" lon="5.66112">
        <ele>484</ele>
        <time>2013-05-28T09:06:36Z</time>
      </trkpt>
      <trkpt lat="46.6981" lon="5.66108">
        <ele>483</ele>
        <time>2013-05-28T09:06:51Z</time>
      </trkpt>
      <trkpt lat="46.6984" lon="5.6611">
        <ele>483</ele>
        <time>2013-05-28T09:07:48Z</time>
      </trkpt>
      <trkpt lat="46.69858" lon="5.66109">
        <ele>483</ele>
        <time>2013-05-28T09:08:12Z</time>
      </trkpt>
      <trkpt lat="46.69876" lon="5.66113">
        <ele>484</ele>
        <time>2013-05-28T09:08:35Z</time>
      </trkpt>
      <trkpt lat="46.69897" lon="5.66115">
        <ele>485</ele>
        <time>2013-05-28T09:08:52Z</time>
      </trkpt>
      <trkpt lat="46.69914" lon="5.6611">
        <ele>484</ele>
        <time>2013-05-28T09:09:10Z</time>
      </trkpt>
      <trkpt lat="46.69925" lon="5.66093">
        <ele>482</ele>
        <time>2013-05-28T09:09:23Z</time>
      </trkpt>
      <trkpt lat="46.6994" lon="5.6606">
        <ele>482</ele>
        <time>2013-05-28T09:09:52Z</time>
      </trkpt>
      <trkpt lat="46.69954" lon="5.66047">
        <ele>482</ele>
        <time>2013-05-28T09:10:10Z</time>
      </trkpt>
      <trkpt lat="46.69969" lon="5.66038">
        <ele>482</ele>
        <time>2013-05-28T09:10:28Z</time>
      </trkpt>
      <trkpt lat="46.69989" lon="5.66025">
        <ele>483</ele>
        <time>2013-05-28T09:11:51Z</time>
      </trkpt>
      <trkpt lat="46.7" lon="5.66011">
        <ele>491</ele>
        <time>2013-05-28T09:12:53Z</time>
      </trkpt>
      <trkpt lat="46.70011" lon="5.65983">
        <ele>490</ele>
        <time>2013-05-28T09:13:22Z</time>
      </trkpt>
      <trkpt lat="46.70018" lon="5.65962">
        <ele>488</ele>
        <time>2013-05-28T09:13:40Z</time>
      </trkpt>
      <trkpt lat="46.7002" lon="5.65939">
        <ele>487</ele>
        <time>2013-05-28T09:13:54Z</time>
      </trkpt>
      <trkpt lat="46.70027" lon="5.65919">
        <ele>486</ele>
        <time>2013-05-28T09:14:11Z</time>
      </trkpt>
      <trkpt lat="46.70035" lon="5.65895">
        <ele>484</ele>
        <time>2013-05-28T09:16:32Z</time>
      </trkpt>
      <trkpt lat="46.70051" lon="5.65883">
        <ele>485</ele>
        <time>2013-05-28T09:16:53Z</time>
      </trkpt>
      <trkpt lat="46.70069" lon="5.65863">
        <ele>489</ele>
        <time>2013-05-28T09:17:18Z</time>
      </trkpt>
      <trkpt lat="46.70085" lon="5.65857">
        <ele>490</ele>
        <time>2013-05-28T09:17:36Z</time>
      </trkpt>
      <trkpt lat="46.70121" lon="5.6585">
        <ele>513.2</ele>
        <time>2013-05-28T09:18:16Z</time>
      </trkpt>
      <trkpt lat="46.70134" lon="5.65838">
        <ele>491</ele>
        <time>2013-05-28T09:18:29Z</time>
      </trkpt>
      <trkpt lat="46.70144" lon="5.65814">
        <ele>490</ele>
        <time>2013-05-28T09:18:50Z</time>
      </trkpt>
      <trkpt lat="46.70153" lon="5.65796">
        <ele>487</ele>
        <time>2013-05-28T09:19:04Z</time>
      </trkpt>
      <trkpt lat="46.70162" lon="5.65777">
        <ele>483</ele>
        <time>2013-05-28T09:19:25Z</time>
      </trkpt>
      <trkpt lat="46.70169" lon="5.65769">
        <ele>480</ele>
        <time>2013-05-28T09:19:52Z</time>
      </trkpt>
      <trkpt lat="46.70195" lon="5.65746">
        <ele>480</ele>
        <time>2013-05-28T09:20:22Z</time>
      </trkpt>
      <trkpt lat="46.70214" lon="5.65731">
        <ele>480</ele>
        <time>2013-05-28T09:20:35Z</time>
      </trkpt>
      <trkpt lat="46.70228" lon="5.65709">
        <ele>479</ele>
        <time>2013-05-28T09:20:51Z</time>
      </trkpt>
      <trkpt lat="46.70237" lon="5.65689">
        <ele>478</ele>
        <time>2013-05-28T09:21:07Z</time>
      </trkpt>
      <trkpt lat="46.70249" lon="5.65674">
        <ele>477</ele>
        <time>2013-05-28T09:21:27Z</time>
      </trkpt>
      <trkpt lat="46.7027" lon="5.65667">
        <ele>477</ele>
        <time>2013-05-28T09:21:56Z</time>
      </trkpt>
      <trkpt lat="46.70289" lon="5.65663">
        <ele>476</ele>
        <time>2013-05-28T09:22:16Z</time>
      </trkpt>
      <trkpt lat="46.7031" lon="5.65646">
        <ele>476</ele>
        <time>2013-05-28T09:22:37Z</time>
      </trkpt>
      <trkpt lat="46.70332" lon="5.65635">
        <ele>476</ele>
        <time>2013-05-28T09:22:56Z</time>
      </trkpt>
      <trkpt lat="46.70347" lon="5.65629">
        <ele>474</ele>
        <time>2013-05-28T09:23:13Z</time>
      </trkpt>
      <trkpt lat="46.70364" lon="5.65627">
        <ele>472</ele>
        <time>2013-05-28T09:23:35Z</time>
      </trkpt>
      <trkpt lat="46.70382" lon="5.65629">
        <ele>471</ele>
        <time>2013-05-28T09:23:56Z</time>
      </trkpt>
      <trkpt lat="46.70396" lon="5.6564">
        <ele>471</ele>
        <time>2013-05-28T09:24:13Z</time>
      </trkpt>
      <trkpt lat="46.70416" lon="5.65659">
        <ele>472</ele>
        <time>2013-05-28T09:24:45Z</time>
      </trkpt>
      <trkpt lat="46.70431" lon="5.65669">
        <ele>474</ele>
        <time>2013-05-28T09:24:59Z</time>
      </trkpt>
      <trkpt lat="46.7045" lon="5.65677">
        <ele>477</ele>
        <time>2013-05-28T09:25:24Z</time>
      </trkpt>
      <trkpt lat="46.7047" lon="5.65679">
        <ele>478</ele>
        <time>2013-05-28T09:25:48Z</time>
      </trkpt>
      <trkpt lat="46.70499" lon="5.65673">
        <ele>480</ele>
        <time>2013-05-28T09:27:32Z</time>
      </trkpt>
      <trkpt lat="46.70502" lon="5.65633">
        <ele>503.1</ele>
        <time>2013-05-28T09:28:43Z</time>
      </trkpt>
      <trkpt lat="46.70502" lon="5.65594">
        <ele>503.1</ele>
        <time>2013-05-28T09:29:13Z</time>
      </trkpt>
      <trkpt lat="46.70488" lon="5.65559">
        <ele>501.7</ele>
        <time>2013-05-28T09:29:55Z</time>
      </trkpt>
      <trkpt lat="46.70473" lon="5.65525">
        <ele>499.2</ele>
        <time>2013-05-28T09:30:32Z</time>
      </trkpt>
      <trkpt lat="46.70446" lon="5.65457">
        <ele>499.5</ele>
        <time>2013-05-28T09:31:40Z</time>
      </trkpt>
      <trkpt lat="46.70443" lon="5.65408">
        <ele>480</ele>
        <time>2013-05-28T09:32:29Z</time>
      </trkpt>
      <trkpt lat="46.70457" lon="5.6537">
        <ele>498.8</ele>
        <time>2013-05-28T09:33:06Z</time>
      </trkpt>
      <trkpt lat="46.70461" lon="5.65331">
        <ele>498.9</ele>
        <time>2013-05-28T09:33:53Z</time>
      </trkpt>
      <trkpt lat="46.70446" lon="5.65297">
        <ele>498</ele>
        <time>2013-05-28T09:34:24Z</time>
      </trkpt>
      <trkpt lat="46.70436" lon="5.6526">
        <ele>496.2</ele>
        <time>2013-05-28T09:34:59Z</time>
      </trkpt>
      <trkpt lat="46.70432" lon="5.65227">
        <ele>482</ele>
        <time>2013-05-28T09:37:52Z</time>
      </trkpt>
      <trkpt lat="46.70429" lon="5.65235">
        <ele>481</ele>
        <time>2013-05-28T09:44:16Z</time>
      </trkpt>
      <trkpt lat="46.70426" lon="5.65263">
        <ele>481</ele>
        <time>2013-05-28T09:44:30Z</time>
      </trkpt>
      <trkpt lat="46.70428" lon="5.65287">
        <ele>482</ele>
        <time>2013-05-28T09:44:51Z</time>
      </trkpt>
      <trkpt lat="46.70442" lon="5.65345">
        <ele>481</ele>
        <time>2013-05-28T09:45:45Z</time>
      </trkpt>
      <trkpt lat="46.70431" lon="5.65374">
        <ele>481</ele>
        <time>2013-05-28T09:46:25Z</time>
      </trkpt>
      <trkpt lat="46.7042" lon="5.65423">
        <ele>482</ele>
        <time>2013-05-28T09:47:14Z</time>
      </trkpt>
      <trkpt lat="46.70419" lon="5.65456">
        <ele>482</ele>
        <time>2013-05-28T09:47:42Z</time>
      </trkpt>
      <trkpt lat="46.70422" lon="5.65502">
        <ele>482</ele>
        <time>2013-05-28T09:48:17Z</time>
      </trkpt>
      <trkpt lat="46.70439" lon="5.65563">
        <ele>504</ele>
        <time>2013-05-28T09:49:53Z</time>
      </trkpt>
      <trkpt lat="46.70458" lon="5.65592">
        <ele>503</ele>
        <time>2013-05-28T09:50:35Z</time>
      </trkpt>
      <trkpt lat="46.70491" lon="5.65621">
        <ele>502.4</ele>
        <time>2013-05-28T09:51:18Z</time>
      </trkpt>
      <trkpt lat="46.70482" lon="5.65664">
        <ele>480</ele>
        <time>2013-05-28T09:52:17Z</time>
      </trkpt>
      <trkpt lat="46.7049" lon="5.657">
        <ele>480</ele>
        <time>2013-05-28T09:52:45Z</time>
      </trkpt>
      <trkpt lat="46.7051" lon="5.65724">
        <ele>480</ele>
        <time>2013-05-28T09:53:25Z</time>
      </trkpt>
      <trkpt lat="46.70569" lon="5.65779">
        <ele>502</ele>
        <time>2013-05-28T09:55:00Z</time>
      </trkpt>
      <trkpt lat="46.70607" lon="5.65811">
        <ele>498.4</ele>
        <time>2013-05-28T09:56:03Z</time>
      </trkpt>
      <trkpt lat="46.70611" lon="5.65835">
        <ele>479</ele>
        <time>2013-05-28T09:56:16Z</time>
      </trkpt>
      <trkpt lat="46.70614" lon="5.6586">
        <ele>477</ele>
        <time>2013-05-28T09:56:39Z</time>
      </trkpt>
      <trkpt lat="46.70625" lon="5.65894">
        <ele>496.6</ele>
        <time>2013-05-28T09:57:09Z</time>
      </trkpt>
      <trkpt lat="46.70662" lon="5.65907">
        <ele>496.7</ele>
        <time>2013-05-28T09:58:10Z</time>
      </trkpt>
      <trkpt lat="46.70696" lon="5.65878">
        <ele>485.6</ele>
        <time>2013-05-28T09:59:19Z</time>
      </trkpt>
      <trkpt lat="46.70723" lon="5.65875">
        <ele>474.8</ele>
        <time>2013-05-28T10:00:58Z</time>
      </trkpt>
      <trkpt lat="46.70767" lon="5.65873">
        <ele>466.2</ele>
        <time>2013-05-28T10:01:36Z</time>
      </trkpt>
      <trkpt lat="46.70796" lon="5.65852">
        <ele>458.5</ele>
        <time>2013-05-28T10:02:43Z</time>
      </trkpt>
      <trkpt lat="46.7081" lon="5.6582">
        <ele>468</ele>
        <time>2013-05-28T10:03:52Z</time>
      </trkpt>
      <trkpt lat="46.70835" lon="5.65783">
        <ele>465</ele>
        <time>2013-05-28T10:04:57Z</time>
      </trkpt>
      <trkpt lat="46.70855" lon="5.65758">
        <ele>464</ele>
        <time>2013-05-28T10:05:42Z</time>
      </trkpt>
      <trkpt lat="46.70866" lon="5.65728">
        <ele>458</ele>
        <time>2013-05-28T10:06:06Z</time>
      </trkpt>
      <trkpt lat="46.70872" lon="5.65706">
        <ele>452</ele>
        <time>2013-05-28T10:06:24Z</time>
      </trkpt>
      <trkpt lat="46.70886" lon="5.65658">
        <ele>446</ele>
        <time>2013-05-28T10:07:07Z</time>
      </trkpt>
      <trkpt lat="46.70886" lon="5.65618">
        <ele>426.1</ele>
        <time>2013-05-28T10:08:01Z</time>
      </trkpt>
      <trkpt lat="46.70867" lon="5.65541">
        <ele>410.9</ele>
        <time>2013-05-28T10:08:38Z</time>
      </trkpt>
      <trkpt lat="46.70844" lon="5.65469">
        <ele>393.9</ele>
        <time>2013-05-28T10:09:39Z</time>
      </trkpt>
      <trkpt lat="46.70844" lon="5.65438">
        <ele>441</ele>
        <time>2013-05-28T10:10:02Z</time>
      </trkpt>
      <trkpt lat="46.70827" lon="5.654">
        <ele>385.3</ele>
        <time>2013-05-28T10:12:52Z</time>
      </trkpt>
      <trkpt lat="46.7082" lon="5.65289">
        <ele>385.9</ele>
        <time>2013-05-28T10:13:46Z</time>
      </trkpt>
      <trkpt lat="46.70795" lon="5.65219">
        <ele>371.9</ele>
        <time>2013-05-28T10:15:05Z</time>
      </trkpt>
      <trkpt lat="46.7079" lon="5.65179">
        <ele>361.7</ele>
        <time>2013-05-28T10:16:21Z</time>
      </trkpt>
      <trkpt lat="46.70804" lon="5.65108">
        <ele>358.3</ele>
        <time>2013-05-28T10:17:14Z</time>
      </trkpt>
      <trkpt lat="46.70814" lon="5.6507">
        <ele>418</ele>
        <time>2013-05-28T10:17:45Z</time>
      </trkpt>
      <trkpt lat="46.70827" lon="5.65017">
        <ele>354.1</ele>
        <time>2013-05-28T10:18:53Z</time>
      </trkpt>
      <trkpt lat="46.70829" lon="5.64977">
        <ele>347.4</ele>
        <time>2013-05-28T10:19:46Z</time>
      </trkpt>
      <trkpt lat="46.70826" lon="5.64925">
        <ele>389</ele>
        <time>2013-05-28T10:21:14Z</time>
      </trkpt>
      <trkpt lat="46.70821" lon="5.6491">
        <ele>370</ele>
        <time>2013-05-28T10:23:42Z</time>
      </trkpt>
      <trkpt lat="46.70777" lon="5.64911">
        <ele>361</ele>
        <time>2013-05-28T10:25:14Z</time>
      </trkpt>
      <trkpt lat="46.70739" lon="5.64907">
        <ele>318</ele>
        <time>2013-05-28T10:26:41Z</time>
      </trkpt>
      <trkpt lat="46.70707" lon="5.64865">
        <ele>308.7</ele>
        <time>2013-05-28T10:26:55Z</time>
      </trkpt>
      <trkpt lat="46.70706" lon="5.64806">
        <ele>339</ele>
        <time>2013-05-28T10:27:46Z</time>
      </trkpt>
      <trkpt lat="46.70717" lon="5.6479">
        <ele>328</ele>
        <time>2013-05-28T10:28:07Z</time>
      </trkpt>
      <trkpt lat="46.70737" lon="5.64783">
        <ele>322</ele>
        <time>2013-05-28T10:28:32Z</time>
      </trkpt>
      <trkpt lat="46.70753" lon="5.64773">
        <ele>318</ele>
        <time>2013-05-28T10:28:44Z</time>
      </trkpt>
      <trkpt lat="46.7077" lon="5.64745">
        <ele>312</ele>
        <time>2013-05-28T10:29:07Z</time>
      </trkpt>
      <trkpt lat="46.70776" lon="5.64723">
        <ele>308</ele>
        <time>2013-05-28T10:29:20Z</time>
      </trkpt>
      <trkpt lat="46.70783" lon="5.64665">
        <ele>304</ele>
        <time>2013-05-28T10:30:41Z</time>
      </trkpt>
      <trkpt lat="46.70771" lon="5.64633">
        <ele>300</ele>
        <time>2013-05-28T10:31:16Z</time>
      </trkpt>
      <trkpt lat="46.70752" lon="5.6463">
        <ele>298</ele>
        <time>2013-05-28T10:31:27Z</time>
      </trkpt>
      <trkpt lat="46.70727" lon="5.64636">
        <ele>293</ele>
        <time>2013-05-28T10:31:42Z</time>
      </trkpt>
      <trkpt lat="46.7071" lon="5.64648">
        <ele>285</ele>
        <time>2013-05-28T10:32:01Z</time>
      </trkpt>
      <trkpt lat="46.70693" lon="5.64651">
        <ele>284</ele>
        <time>2013-05-28T10:32:23Z</time>
      </trkpt>
      <trkpt lat="46.70652" lon="5.64651">
        <ele>281</ele>
        <time>2013-05-28T10:32:59Z</time>
      </trkpt>
      <trkpt lat="46.70571" lon="5.64645">
        <ele>313.4</ele>
        <time>2013-05-28T10:34:10Z</time>
      </trkpt>
      <trkpt lat="46.70547" lon="5.64653">
        <ele>277</ele>
        <time>2013-05-28T10:34:27Z</time>
      </trkpt>
      <trkpt lat="46.7051" lon="5.64664">
        <ele>275</ele>
        <time>2013-05-28T10:35:16Z</time>
      </trkpt>
      <trkpt lat="46.70488" lon="5.64655">
        <ele>275</ele>
        <time>2013-05-28T10:35:30Z</time>
      </trkpt>
      <trkpt lat="46.70473" lon="5.64649">
        <ele>275</ele>
        <time>2013-05-28T10:35:36Z</time>
      </trkpt>
      <trkpt lat="46.70453" lon="5.64637">
        <ele>274</ele>
        <time>2013-05-28T10:35:57Z</time>
      </trkpt>
      <trkpt lat="46.70434" lon="5.64628">
        <ele>275</ele>
        <time>2013-05-28T10:36:14Z</time>
      </trkpt>
      <trkpt lat="46.70409" lon="5.6461">
        <ele>276</ele>
        <time>2013-05-28T10:36:56Z</time>
      </trkpt>
      <trkpt lat="46.70444" lon="5.64558">
        <ele>318.4</ele>
        <time>2013-05-28T10:39:14Z</time>
      </trkpt>
      <trkpt lat="46.70437" lon="5.64527">
        <ele>278</ele>
        <time>2013-05-28T10:39:47Z</time>
      </trkpt>
      <trkpt lat="46.70428" lon="5.64519">
        <ele>286</ele>
        <time>2013-05-28T10:40:10Z</time>
      </trkpt>
      <trkpt lat="46.70423" lon="5.64508">
        <ele>289</ele>
        <time>2013-05-28T10:40:31Z</time>
      </trkpt>
      <trkpt lat="46.70409" lon="5.64495">
        <ele>291</ele>
        <time>2013-05-28T10:40:54Z</time>
      </trkpt>
      <trkpt lat="46.70393" lon="5.64483">
        <ele>293</ele>
        <time>2013-05-28T10:41:12Z</time>
      </trkpt>
      <trkpt lat="46.70376" lon="5.64464">
        <ele>294</ele>
        <time>2013-05-28T10:41:43Z</time>
      </trkpt>
      <trkpt lat="46.70356" lon="5.64445">
        <ele>298</ele>
        <time>2013-05-28T10:42:13Z</time>
      </trkpt>
      <trkpt lat="46.70349" lon="5.64418">
        <ele>300</ele>
        <time>2013-05-28T10:42:36Z</time>
      </trkpt>
      <trkpt lat="46.70304" lon="5.64387">
        <ele>337.6</ele>
        <time>2013-05-28T10:43:35Z</time>
      </trkpt>
      <trkpt lat="46.70284" lon="5.64383">
        <ele>304</ele>
        <time>2013-05-28T10:43:54Z</time>
      </trkpt>
      <trkpt lat="46.70264" lon="5.6438">
        <ele>304</ele>
        <time>2013-05-28T10:44:15Z</time>
      </trkpt>
      <trkpt lat="46.70245" lon="5.64372">
        <ele>303</ele>
        <time>2013-05-28T10:44:37Z</time>
      </trkpt>
      <trkpt lat="46.70228" lon="5.64364">
        <ele>301</ele>
        <time>2013-05-28T10:44:57Z</time>
      </trkpt>
      <trkpt lat="46.7021" lon="5.64366">
        <ele>295</ele>
        <time>2013-05-28T10:45:44Z</time>
      </trkpt>
      <trkpt lat="46.70187" lon="5.64364">
        <ele>294</ele>
        <time>2013-05-28T10:46:17Z</time>
      </trkpt>
      <trkpt lat="46.7017" lon="5.64344">
        <ele>294</ele>
        <time>2013-05-28T10:46:43Z</time>
      </trkpt>
      <trkpt lat="46.70147" lon="5.64324">
        <ele>292</ele>
        <time>2013-05-28T10:47:13Z</time>
      </trkpt>
      <trkpt lat="46.70122" lon="5.64292">
        <ele>320.3</ele>
        <time>2013-05-28T10:50:12Z</time>
      </trkpt>
      <trkpt lat="46.70108" lon="5.64258">
        <ele>325.3</ele>
        <time>2013-05-28T10:50:48Z</time>
      </trkpt>
      <trkpt lat="46.70085" lon="5.64234">
        <ele>327</ele>
        <time>2013-05-28T10:51:18Z</time>
      </trkpt>
      <trkpt lat="46.70058" lon="5.64232">
        <ele>320.4</ele>
        <time>2013-05-28T10:51:49Z</time>
      </trkpt>
      <trkpt lat="46.70006" lon="5.64208">
        <ele>320.4</ele>
        <time>2013-05-28T10:52:38Z</time>
      </trkpt>
      <trkpt lat="46.69965" lon="5.64187">
        <ele>322.2</ele>
        <time>2013-05-28T10:53:24Z</time>
      </trkpt>
      <trkpt lat="46.69925" lon="5.64169">
        <ele>321.5</ele>
        <time>2013-05-28T10:54:44Z</time>
      </trkpt>
      <trkpt lat="46.69898" lon="5.64159">
        <ele>322.6</ele>
        <time>2013-05-28T10:55:20Z</time>
      </trkpt>
      <trkpt lat="46.6987" lon="5.64155">
        <ele>323.3</ele>
        <time>2013-05-28T10:55:56Z</time>
      </trkpt>
      <trkpt lat="46.69844" lon="5.64165">
        <ele>320.2</ele>
        <time>2013-05-28T10:56:26Z</time>
      </trkpt>
      <trkpt lat="46.69816" lon="5.6417">
        <ele>320.8</ele>
        <time>2013-05-28T10:56:57Z</time>
      </trkpt>
      <trkpt lat="46.69763" lon="5.64185">
        <ele>320.7</ele>
        <time>2013-05-28T10:57:32Z</time>
      </trkpt>
      <trkpt lat="46.69734" lon="5.64185">
        <ele>321.1</ele>
        <time>2013-05-28T10:58:12Z</time>
      </trkpt>
      <trkpt lat="46.69707" lon="5.64181">
        <ele>321.3</ele>
        <time>2013-05-28T10:58:49Z</time>
      </trkpt>
      <trkpt lat="46.6968" lon="5.64177">
        <ele>321.4</ele>
        <time>2013-05-28T10:59:20Z</time>
      </trkpt>
      <trkpt lat="46.69655" lon="5.64159">
        <ele>325</ele>
        <time>2013-05-28T10:59:56Z</time>
      </trkpt>
      <trkpt lat="46.69629" lon="5.64151">
        <ele>326.2</ele>
        <time>2013-05-28T11:00:39Z</time>
      </trkpt>
      <trkpt lat="46.69603" lon="5.64138">
        <ele>326.4</ele>
        <time>2013-05-28T11:01:16Z</time>
      </trkpt>
      <trkpt lat="46.69555" lon="5.64096">
        <ele>329.4</ele>
        <time>2013-05-28T11:01:45Z</time>
      </trkpt>
      <trkpt lat="46.69505" lon="5.64066">
        <ele>327.2</ele>
        <time>2013-05-28T11:03:26Z</time>
      </trkpt>
      <trkpt lat="46.69479" lon="5.64057">
        <ele>326.4</ele>
        <time>2013-05-28T11:05:45Z</time>
      </trkpt>
      <trkpt lat="46.69442" lon="5.63996">
        <ele>336.5</ele>
        <time>2013-05-28T11:06:26Z</time>
      </trkpt>
      <trkpt lat="46.69403" lon="5.63939">
        <ele>348.2</ele>
        <time>2013-05-28T11:07:03Z</time>
      </trkpt>
      <trkpt lat="46.69376" lon="5.63931">
        <ele>349.8</ele>
        <time>2013-05-28T11:07:51Z</time>
      </trkpt>
      <trkpt lat="46.69352" lon="5.63949">
        <ele>340.2</ele>
        <time>2013-05-28T11:08:28Z</time>
      </trkpt>
      <trkpt lat="46.69327" lon="5.63932">
        <ele>345.9</ele>
        <time>2013-05-28T11:11:27Z</time>
      </trkpt>
      <trkpt lat="46.69299" lon="5.63934">
        <ele>344.4</ele>
        <time>2013-05-28T11:12:45Z</time>
      </trkpt>
      <trkpt lat="46.69274" lon="5.63917">
        <ele>350.5</ele>
        <time>2013-05-28T11:13:15Z</time>
      </trkpt>
      <trkpt lat="46.69251" lon="5.63894">
        <ele>359.4</ele>
        <time>2013-05-28T11:13:46Z</time>
      </trkpt>
      <trkpt lat="46.69226" lon="5.63911">
        <ele>351.6</ele>
        <time>2013-05-28T11:15:00Z</time>
      </trkpt>
      <trkpt lat="46.69184" lon="5.63862">
        <ele>364.4</ele>
        <time>2013-05-28T11:15:32Z</time>
      </trkpt>
      <trkpt lat="46.69158" lon="5.63853">
        <ele>366</ele>
        <time>2013-05-28T11:16:15Z</time>
      </trkpt>
      <trkpt lat="46.69141" lon="5.63823">
        <ele>378.7</ele>
        <time>2013-05-28T11:18:37Z</time>
      </trkpt>
      <trkpt lat="46.69114" lon="5.63828">
        <ele>382.3</ele>
        <time>2013-05-28T11:19:19Z</time>
      </trkpt>
      <trkpt lat="46.6909" lon="5.63846">
        <ele>386</ele>
        <time>2013-05-28T11:19:50Z</time>
      </trkpt>
      <trkpt lat="46.69068" lon="5.63916">
        <ele>374.5</ele>
        <time>2013-05-28T11:20:21Z</time>
      </trkpt>
      <trkpt lat="46.69071" lon="5.63957">
        <ele>375.3</ele>
        <time>2013-05-28T11:21:02Z</time>
      </trkpt>
    </trkseg>
  </trk>
</gpx>